sensor_id;sensor_type;location;lat;lon;timestamp;pressure;altitude;pressure_sealevel;temperature;humidity
43420;BME280;29017;51.514;-0.178;2023-04-09T00:00:39;102067.00;;;11.20;85.67
43420;BME280;29017;51.514;-0.178;2023-04-09T00:03:07;102061.72;;;11.20;85.64
43420;BME280;29017;51.514;-0.178;2023-04-09T00:05:37;102061.72;;;11.20;85.34
43420;BME280;29017;51.514;-0.178;2023-04-09T00:08:04;102057.31;;;11.21;85.16
43420;BME280;29017;51.514;-0.178;2023-04-09T00:10:31;102049.63;;;11.18;84.77
43420;BME280;29017;51.514;-0.178;2023-04-09T00:12:58;102051.47;;;11.17;84.97
43420;BME280;29017;51.514;-0.178;2023-04-09T00:15:24;102049.78;;;11.16;84.92
43420;BME280;29017;51.514;-0.178;2023-04-09T00:17:57;102048.09;;;11.15;84.79
43420;BME280;29017;51.514;-0.178;2023-04-09T00:20:24;102050.16;;;11.11;85.05
43420;BME280;29017;51.514;-0.178;2023-04-09T00:22:51;102039.03;;;11.08;84.28
43420;BME280;29017;51.514;-0.178;2023-04-09T00:25:18;102035.56;;;11.07;85.02
43420;BME280;29017;51.514;-0.178;2023-04-09T00:27:45;102047.53;;;11.11;85.61
43420;BME280;29017;51.514;-0.178;2023-04-09T00:30:12;102044.06;;;11.11;85.18
43420;BME280;29017;51.514;-0.178;2023-04-09T00:32:39;102037.84;;;11.12;85.67
43420;BME280;29017;51.514;-0.178;2023-04-09T00:35:06;102035.06;;;11.13;85.66
43420;BME280;29017;51.514;-0.178;2023-04-09T00:37:33;102029.94;;;11.12;85.29
43420;BME280;29017;51.514;-0.178;2023-04-09T00:40:00;102031.47;;;11.14;85.37
43420;BME280;29017;51.514;-0.178;2023-04-09T00:42:30;102023.44;;;11.16;85.60
43420;BME280;29017;51.514;-0.178;2023-04-09T00:44:57;102022.59;;;11.15;85.30
43420;BME280;29017;51.514;-0.178;2023-04-09T00:47:25;102021.66;;;11.17;85.58
43420;BME280;29017;51.514;-0.178;2023-04-09T00:49:54;102019.00;;;11.17;85.42
43420;BME280;29017;51.514;-0.178;2023-04-09T00:52:21;102022.22;;;11.20;85.72
43420;BME280;29017;51.514;-0.178;2023-04-09T00:54:49;102018.75;;;11.20;85.47
43420;BME280;29017;51.514;-0.178;2023-04-09T00:57:16;102019.59;;;11.20;85.97
43420;BME280;29017;51.514;-0.178;2023-04-09T00:59:43;102006.53;;;11.19;85.88
43420;BME280;29017;51.514;-0.178;2023-04-09T01:02:11;102007.25;;;11.21;86.46
43420;BME280;29017;51.514;-0.178;2023-04-09T01:04:39;102005.56;;;11.20;86.56
43420;BME280;29017;51.514;-0.178;2023-04-09T01:09:40;102002.81;;;11.21;85.95
43420;BME280;29017;51.514;-0.178;2023-04-09T01:14:38;101994.91;;;11.21;86.32
43420;BME280;29017;51.514;-0.178;2023-04-09T01:17:11;101994.91;;;11.21;86.60
43420;BME280;29017;51.514;-0.178;2023-04-09T01:22:11;101991.00;;;11.15;86.54
43420;BME280;29017;51.514;-0.178;2023-04-09T01:24:41;101987.63;;;11.13;86.02
43420;BME280;29017;51.514;-0.178;2023-04-09T01:27:12;101984.78;;;11.17;86.48
43420;BME280;29017;51.514;-0.178;2023-04-09T01:29:44;101989.31;;;11.14;85.92
43420;BME280;29017;51.514;-0.178;2023-04-09T01:32:12;101987.63;;;11.13;85.33
43420;BME280;29017;51.514;-0.178;2023-04-09T01:34:42;101978.91;;;11.13;84.61
43420;BME280;29017;51.514;-0.178;2023-04-09T01:37:10;101983.47;;;11.11;84.92
43420;BME280;29017;51.514;-0.178;2023-04-09T01:39:38;101984.69;;;11.07;84.49
43420;BME280;29017;51.514;-0.178;2023-04-09T01:42:05;101980.97;;;11.09;85.29
43420;BME280;29017;51.514;-0.178;2023-04-09T01:44:38;101976.66;;;11.08;85.54
43420;BME280;29017;51.514;-0.178;2023-04-09T01:47:06;101987.44;;;11.05;85.30
43420;BME280;29017;51.514;-0.178;2023-04-09T01:49:34;101979.66;;;11.04;85.24
43420;BME280;29017;51.514;-0.178;2023-04-09T01:52:01;101978.38;;;10.98;84.82
43420;BME280;29017;51.514;-0.178;2023-04-09T01:54:31;101984.59;;;10.97;85.38
43420;BME280;29017;51.514;-0.178;2023-04-09T01:57:00;101980.69;;;10.92;85.08
43420;BME280;29017;51.514;-0.178;2023-04-09T01:59:28;101987.03;;;10.89;85.22
43420;BME280;29017;51.514;-0.178;2023-04-09T02:04:23;101971.63;;;10.85;85.08
43420;BME280;29017;51.514;-0.178;2023-04-09T02:06:56;101972.69;;;10.82;85.41
43420;BME280;29017;51.514;-0.178;2023-04-09T02:09:26;101962.53;;;10.78;85.03
43420;BME280;29017;51.514;-0.178;2023-04-09T02:11:55;101969.38;;;10.80;86.02
43420;BME280;29017;51.514;-0.178;2023-04-09T02:14:24;101964.72;;;10.72;85.96
43420;BME280;29017;51.514;-0.178;2023-04-09T02:16:52;101966.91;;;10.67;85.79
43420;BME280;29017;51.514;-0.178;2023-04-09T02:19:19;101968.00;;;10.65;86.12
43420;BME280;29017;51.514;-0.178;2023-04-09T02:21:46;101971.59;;;10.64;86.45
43420;BME280;29017;51.514;-0.178;2023-04-09T02:24:13;101966.31;;;10.64;86.50
43420;BME280;29017;51.514;-0.178;2023-04-09T02:26:40;101965.47;;;10.63;87.23
43420;BME280;29017;51.514;-0.178;2023-04-09T02:29:07;101969.78;;;10.64;87.61
43420;BME280;29017;51.514;-0.178;2023-04-09T02:31:34;101963.94;;;10.61;87.04
43420;BME280;29017;51.514;-0.178;2023-04-09T02:34:01;101967.41;;;10.61;87.34
43420;BME280;29017;51.514;-0.178;2023-04-09T02:36:28;101960.47;;;10.60;87.22
43420;BME280;29017;51.514;-0.178;2023-04-09T02:38:55;101958.06;;;10.57;87.13
43420;BME280;29017;51.514;-0.178;2023-04-09T02:41:22;101953.06;;;10.54;86.88
43420;BME280;29017;51.514;-0.178;2023-04-09T02:43:50;101946.13;;;10.53;87.57
43420;BME280;29017;51.514;-0.178;2023-04-09T02:46:17;101955.97;;;10.51;87.20
43420;BME280;29017;51.514;-0.178;2023-04-09T02:48:44;101952.63;;;10.49;87.24
43420;BME280;29017;51.514;-0.178;2023-04-09T02:51:11;101945.94;;;10.45;87.27
43420;BME280;29017;51.514;-0.178;2023-04-09T02:53:38;101952.25;;;10.43;87.67
43420;BME280;29017;51.514;-0.178;2023-04-09T02:56:06;101948.78;;;10.42;87.72
43420;BME280;29017;51.514;-0.178;2023-04-09T02:58:33;101947.25;;;10.40;88.12
43420;BME280;29017;51.514;-0.178;2023-04-09T03:01:00;101946.69;;;10.36;88.28
43420;BME280;29017;51.514;-0.178;2023-04-09T03:03:27;101947.38;;;10.38;89.07
43420;BME280;29017;51.514;-0.178;2023-04-09T03:05:55;101946.78;;;10.35;88.48
43420;BME280;29017;51.514;-0.178;2023-04-09T03:08:22;101947.75;;;10.34;88.31
43420;BME280;29017;51.514;-0.178;2023-04-09T03:10:49;101938.44;;;10.29;88.48
43420;BME280;29017;51.514;-0.178;2023-04-09T03:13:16;101942.97;;;10.27;88.87
43420;BME280;29017;51.514;-0.178;2023-04-09T03:15:43;101937.72;;;10.27;89.15
43420;BME280;29017;51.514;-0.178;2023-04-09T03:18:10;101925.78;;;10.23;88.85
43420;BME280;29017;51.514;-0.178;2023-04-09T03:20:37;101932.00;;;10.22;88.64
43420;BME280;29017;51.514;-0.178;2023-04-09T03:23:05;101929.63;;;10.19;88.51
43420;BME280;29017;51.514;-0.178;2023-04-09T03:25:32;101931.63;;;10.16;88.26
43420;BME280;29017;51.514;-0.178;2023-04-09T03:27:59;101934.38;;;10.14;88.59
43420;BME280;29017;51.514;-0.178;2023-04-09T03:30:26;101926.72;;;10.11;89.03
43420;BME280;29017;51.514;-0.178;2023-04-09T03:32:53;101931.03;;;10.12;89.37
43420;BME280;29017;51.514;-0.178;2023-04-09T03:35:20;101917.19;;;10.10;89.07
43420;BME280;29017;51.514;-0.178;2023-04-09T03:37:47;101918.00;;;10.11;89.64
43420;BME280;29017;51.514;-0.178;2023-04-09T03:40:14;101919.81;;;10.10;89.52
43420;BME280;29017;51.514;-0.178;2023-04-09T03:42:41;101919.91;;;10.09;89.55
43420;BME280;29017;51.514;-0.178;2023-04-09T03:45:08;101926.03;;;10.09;89.46
43420;BME280;29017;51.514;-0.178;2023-04-09T03:47:35;101924.44;;;10.07;89.43
43420;BME280;29017;51.514;-0.178;2023-04-09T03:50:03;101919.34;;;10.05;89.39
43420;BME280;29017;51.514;-0.178;2023-04-09T03:52:30;101909.78;;;10.04;89.56
43420;BME280;29017;51.514;-0.178;2023-04-09T03:54:57;101916.72;;;10.05;89.20
43420;BME280;29017;51.514;-0.178;2023-04-09T03:57:23;101917.66;;;10.04;89.58
43420;BME280;29017;51.514;-0.178;2023-04-09T03:59:50;101924.72;;;10.04;89.63
43420;BME280;29017;51.514;-0.178;2023-04-09T04:02:18;101917.66;;;10.04;89.78
43420;BME280;29017;51.514;-0.178;2023-04-09T04:04:45;101922.91;;;10.04;89.83
43420;BME280;29017;51.514;-0.178;2023-04-09T04:07:12;101918.50;;;10.05;90.01
43420;BME280;29017;51.514;-0.178;2023-04-09T04:09:39;101919.47;;;10.04;89.55
43420;BME280;29017;51.514;-0.178;2023-04-09T04:12:06;101919.47;;;10.04;89.55
43420;BME280;29017;51.514;-0.178;2023-04-09T04:14:33;101924.59;;;10.05;89.86
43420;BME280;29017;51.514;-0.178;2023-04-09T04:17:00;101920.16;;;10.06;89.61
43420;BME280;29017;51.514;-0.178;2023-04-09T04:19:27;101916.81;;;10.04;89.47
43420;BME280;29017;51.514;-0.178;2023-04-09T04:21:54;101915.88;;;10.05;89.46
43420;BME280;29017;51.514;-0.178;2023-04-09T04:24:21;101926.25;;;10.06;89.49
43420;BME280;29017;51.514;-0.178;2023-04-09T04:26:49;101916.44;;;10.08;89.43
43420;BME280;29017;51.514;-0.178;2023-04-09T04:29:16;101913.81;;;10.08;89.05
43420;BME280;29017;51.514;-0.178;2023-04-09T04:31:43;101916.19;;;10.11;88.80
43420;BME280;29017;51.514;-0.178;2023-04-09T04:34:10;101914.28;;;10.13;89.58
43420;BME280;29017;51.514;-0.178;2023-04-09T04:36:37;101911.78;;;10.12;88.91
43420;BME280;29017;51.514;-0.178;2023-04-09T04:39:04;101916.09;;;10.13;88.86
43420;BME280;29017;51.514;-0.178;2023-04-09T04:41:31;101911.66;;;10.13;88.98
43420;BME280;29017;51.514;-0.178;2023-04-09T04:43:58;101915.97;;;10.14;88.92
43420;BME280;29017;51.514;-0.178;2023-04-09T04:46:24;101917.66;;;10.15;88.84
43420;BME280;29017;51.514;-0.178;2023-04-09T04:48:51;101916.69;;;10.16;89.38
43420;BME280;29017;51.514;-0.178;2023-04-09T04:51:19;101913.22;;;10.16;88.94
43420;BME280;29017;51.514;-0.178;2023-04-09T04:53:46;101912.38;;;10.15;88.54
43420;BME280;29017;51.514;-0.178;2023-04-09T04:56:13;101906.41;;;10.13;88.31
43420;BME280;29017;51.514;-0.178;2023-04-09T04:58:40;101911.66;;;10.13;88.11
43420;BME280;29017;51.514;-0.178;2023-04-09T05:01:07;101898.50;;;10.13;88.40
43420;BME280;29017;51.514;-0.178;2023-04-09T05:03:34;101905.56;;;10.13;88.44
43420;BME280;29017;51.514;-0.178;2023-04-09T05:06:02;101901.41;;;10.10;88.00
43420;BME280;29017;51.514;-0.178;2023-04-09T05:08:29;101902.22;;;10.11;88.28
43420;BME280;29017;51.514;-0.178;2023-04-09T05:10:56;101901.41;;;10.10;88.47
43420;BME280;29017;51.514;-0.178;2023-04-09T05:13:23;101898.88;;;10.09;88.26
43420;BME280;29017;51.514;-0.178;2023-04-09T05:15:50;101899.94;;;10.06;87.62
43420;BME280;29017;51.514;-0.178;2023-04-09T05:18:17;101895.53;;;10.07;88.36
43420;BME280;29017;51.514;-0.178;2023-04-09T05:20:44;101896.63;;;10.04;88.10
43420;BME280;29017;51.514;-0.178;2023-04-09T05:23:11;101887.91;;;10.04;88.39
43420;BME280;29017;51.514;-0.178;2023-04-09T05:25:38;101885.50;;;10.01;88.22
43420;BME280;29017;51.514;-0.178;2023-04-09T05:28:05;101886.47;;;10.00;88.29
43420;BME280;29017;51.514;-0.178;2023-04-09T05:30:32;101882.88;;;10.01;88.33
43420;BME280;29017;51.514;-0.178;2023-04-09T05:32:59;101885.75;;;9.98;88.59
43420;BME280;29017;51.514;-0.178;2023-04-09T05:35:26;101884.06;;;9.97;88.66
43420;BME280;29017;51.514;-0.178;2023-04-09T05:37:53;101887.66;;;9.96;88.38
43420;BME280;29017;51.514;-0.178;2023-04-09T05:40:20;101884.81;;;9.99;88.55
43420;BME280;29017;51.514;-0.178;2023-04-09T05:42:47;101889.59;;;9.94;88.27
43420;BME280;29017;51.514;-0.178;2023-04-09T05:45:14;101892.22;;;9.94;87.99
43420;BME280;29017;51.514;-0.178;2023-04-09T05:47:41;101896.38;;;9.96;87.86
43420;BME280;29017;51.514;-0.178;2023-04-09T05:50:08;101882.19;;;9.99;87.86
43420;BME280;29017;51.514;-0.178;2023-04-09T05:52:35;101889.13;;;10.00;88.03
43420;BME280;29017;51.514;-0.178;2023-04-09T05:55:03;101892.44;;;10.02;87.85
43420;BME280;29017;51.514;-0.178;2023-04-09T05:57:31;101893.16;;;10.04;88.14
43420;BME280;29017;51.514;-0.178;2023-04-09T05:59:58;101894.22;;;10.01;87.56
43420;BME280;29017;51.514;-0.178;2023-04-09T06:02:24;101891.47;;;10.03;87.10
43420;BME280;29017;51.514;-0.178;2023-04-09T06:04:52;101892.91;;;10.07;87.65
43420;BME280;29017;51.514;-0.178;2023-04-09T06:07:19;101886.56;;;10.09;87.70
43420;BME280;29017;51.514;-0.178;2023-04-09T06:09:46;101888.25;;;10.10;88.03
43420;BME280;29017;51.514;-0.178;2023-04-09T06:12:13;101891.84;;;10.09;87.78
43420;BME280;29017;51.514;-0.178;2023-04-09T06:14:41;101892.69;;;10.10;87.89
43420;BME280;29017;51.514;-0.178;2023-04-09T06:17:08;101892.78;;;10.08;88.02
43420;BME280;29017;51.514;-0.178;2023-04-09T06:19:35;101893.63;;;10.09;88.28
43420;BME280;29017;51.514;-0.178;2023-04-09T06:22:02;101894.31;;;10.11;88.23
43420;BME280;29017;51.514;-0.178;2023-04-09T06:24:29;101902.09;;;10.12;88.44
43420;BME280;29017;51.514;-0.178;2023-04-09T06:26:57;101900.19;;;10.14;88.53
43420;BME280;29017;51.514;-0.178;2023-04-09T06:29:23;101888.84;;;10.14;88.56
43420;BME280;29017;51.514;-0.178;2023-04-09T06:31:51;101881.78;;;10.14;88.82
43420;BME280;29017;51.514;-0.178;2023-04-09T06:34:18;101885.97;;;10.17;88.42
43420;BME280;29017;51.514;-0.178;2023-04-09T06:36:45;101883.13;;;10.20;88.75
43420;BME280;29017;51.514;-0.178;2023-04-09T06:39:12;101890.38;;;10.27;88.41
43420;BME280;29017;51.514;-0.178;2023-04-09T06:41:39;101882.47;;;10.27;88.32
43420;BME280;29017;51.514;-0.178;2023-04-09T06:44:06;101876.25;;;10.28;87.91
43420;BME280;29017;51.514;-0.178;2023-04-09T06:46:33;101878.91;;;10.28;87.76
43420;BME280;29017;51.514;-0.178;2023-04-09T06:49:01;101876.00;;;10.32;88.30
43420;BME280;29017;51.514;-0.178;2023-04-09T06:51:28;101875.88;;;10.33;87.46
43420;BME280;29017;51.514;-0.178;2023-04-09T06:53:55;101868.56;;;10.37;87.09
43420;BME280;29017;51.514;-0.178;2023-04-09T06:56:22;101870.72;;;10.63;87.21
43420;BME280;29017;51.514;-0.178;2023-04-09T06:58:48;101863.91;;;11.02;85.44
43420;BME280;29017;51.514;-0.178;2023-04-09T07:01:16;101867.34;;;11.24;83.92
43420;BME280;29017;51.514;-0.178;2023-04-09T07:03:43;101864.53;;;11.36;82.91
43420;BME280;29017;51.514;-0.178;2023-04-09T07:06:10;101864.22;;;11.70;81.24
43420;BME280;29017;51.514;-0.178;2023-04-09T07:08:38;101868.38;;;12.12;80.05
43420;BME280;29017;51.514;-0.178;2023-04-09T07:11:05;101871.97;;;12.50;78.31
43420;BME280;29017;51.514;-0.178;2023-04-09T07:13:32;101873.47;;;12.91;75.79
43420;BME280;29017;51.514;-0.178;2023-04-09T07:15:59;101869.13;;;13.09;73.99
43420;BME280;29017;51.514;-0.178;2023-04-09T07:18:26;101877.34;;;12.96;74.43
43420;BME280;29017;51.514;-0.178;2023-04-09T07:20:53;101884.06;;;12.81;74.27
43420;BME280;29017;51.514;-0.178;2023-04-09T07:23:20;101872.38;;;12.93;74.91
43420;BME280;29017;51.514;-0.178;2023-04-09T07:25:48;101864.97;;;13.06;73.92
43420;BME280;29017;51.514;-0.178;2023-04-09T07:28:15;101853.50;;;13.35;73.59
43420;BME280;29017;51.514;-0.178;2023-04-09T07:30:42;101846.28;;;13.64;71.92
43420;BME280;29017;51.514;-0.178;2023-04-09T07:33:09;101849.94;;;13.81;71.11
43420;BME280;29017;51.514;-0.178;2023-04-09T07:35:36;101855.28;;;13.71;70.55
43420;BME280;29017;51.514;-0.178;2023-04-09T07:38:03;101860.91;;;13.86;69.71
43420;BME280;29017;51.514;-0.178;2023-04-09T07:40:30;101868.78;;;14.13;68.90
43420;BME280;29017;51.514;-0.178;2023-04-09T07:42:57;101867.28;;;14.28;68.50
43420;BME280;29017;51.514;-0.178;2023-04-09T07:45:24;101869.56;;;14.59;66.90
43420;BME280;29017;51.514;-0.178;2023-04-09T07:47:52;101873.56;;;14.80;66.48
43420;BME280;29017;51.514;-0.178;2023-04-09T07:50:19;101872.78;;;14.62;65.67
43420;BME280;29017;51.514;-0.178;2023-04-09T07:52:46;101869.56;;;14.23;66.50
43420;BME280;29017;51.514;-0.178;2023-04-09T07:55:13;101875.19;;;13.93;69.32
43420;BME280;29017;51.514;-0.178;2023-04-09T07:57:42;101865.25;;;13.77;70.13
43420;BME280;29017;51.514;-0.178;2023-04-09T08:00:11;101869.28;;;13.81;70.12
43420;BME280;29017;51.514;-0.178;2023-04-09T08:02:38;101867.34;;;14.01;69.19
43420;BME280;29017;51.514;-0.178;2023-04-09T08:05:05;101874.47;;;14.18;68.60
43420;BME280;29017;51.514;-0.178;2023-04-09T08:07:33;101888.69;;;14.35;67.90
43420;BME280;29017;51.514;-0.178;2023-04-09T08:10:00;101884.97;;;14.37;67.46
43420;BME280;29017;51.514;-0.178;2023-04-09T08:12:27;101891.25;;;14.36;66.94
43420;BME280;29017;51.514;-0.178;2023-04-09T08:14:54;101873.34;;;14.21;67.32
43420;BME280;29017;51.514;-0.178;2023-04-09T08:17:21;101872.19;;;14.05;68.79
43420;BME280;29017;51.514;-0.178;2023-04-09T08:19:49;101877.63;;;13.86;69.49
43420;BME280;29017;51.514;-0.178;2023-04-09T08:22:16;101875.75;;;13.69;70.52
43420;BME280;29017;51.514;-0.178;2023-04-09T08:24:43;101868.88;;;13.49;70.59
43420;BME280;29017;51.514;-0.178;2023-04-09T08:27:10;101874.25;;;13.30;71.41
43420;BME280;29017;51.514;-0.178;2023-04-09T08:29:37;101878.03;;;13.17;71.65
43420;BME280;29017;51.514;-0.178;2023-04-09T08:32:06;101870.25;;;13.16;72.13
43420;BME280;29017;51.514;-0.178;2023-04-09T08:34:33;101873.19;;;13.13;72.74
43420;BME280;29017;51.514;-0.178;2023-04-09T08:37:00;101876.38;;;13.16;73.45
43420;BME280;29017;51.514;-0.178;2023-04-09T08:39:28;101871.34;;;13.23;72.71
43420;BME280;29017;51.514;-0.178;2023-04-09T08:41:56;101868.84;;;13.21;72.49
43420;BME280;29017;51.514;-0.178;2023-04-09T08:44:26;101866.75;;;13.25;72.80
43420;BME280;29017;51.514;-0.178;2023-04-09T08:46:55;101865.94;;;13.24;73.04
43420;BME280;29017;51.514;-0.178;2023-04-09T08:49:24;101856.47;;;13.22;72.99
43420;BME280;29017;51.514;-0.178;2023-04-09T08:51:52;101856.06;;;13.17;72.15
43420;BME280;29017;51.514;-0.178;2023-04-09T08:54:19;101860.09;;;13.11;72.47
43420;BME280;29017;51.514;-0.178;2023-04-09T08:56:46;101854.25;;;13.08;72.54
43420;BME280;29017;51.514;-0.178;2023-04-09T08:59:14;101860.81;;;13.13;73.40
43420;BME280;29017;51.514;-0.178;2023-04-09T09:01:42;101859.69;;;13.16;72.96
43420;BME280;29017;51.514;-0.178;2023-04-09T09:04:10;101861.63;;;13.23;73.15
43420;BME280;29017;51.514;-0.178;2023-04-09T09:06:37;101863.81;;;13.28;73.80
43420;BME280;29017;51.514;-0.178;2023-04-09T09:11:33;101856.16;;;13.35;74.39
43420;BME280;29017;51.514;-0.178;2023-04-09T09:16:31;101856.78;;;13.46;72.95
43420;BME280;29017;51.514;-0.178;2023-04-09T09:19:00;101851.88;;;13.51;73.01
43420;BME280;29017;51.514;-0.178;2023-04-09T09:21:28;101855.31;;;13.61;73.39
43420;BME280;29017;51.514;-0.178;2023-04-09T09:23:56;101859.19;;;13.67;71.58
43420;BME280;29017;51.514;-0.178;2023-04-09T09:26:24;101859.00;;;13.78;71.47
43420;BME280;29017;51.514;-0.178;2023-04-09T09:28:53;101867.03;;;13.86;70.67
43420;BME280;29017;51.514;-0.178;2023-04-09T09:31:44;101864.59;;;13.93;69.72
43420;BME280;29017;51.514;-0.178;2023-04-09T09:34:13;101860.53;;;13.98;69.61
43420;BME280;29017;51.514;-0.178;2023-04-09T09:36:45;101858.66;;;14.08;68.29
43420;BME280;29017;51.514;-0.178;2023-04-09T09:39:18;101859.19;;;14.12;68.48
43420;BME280;29017;51.514;-0.178;2023-04-09T09:41:47;101856.78;;;14.19;69.27
43420;BME280;29017;51.514;-0.178;2023-04-09T09:44:29;101846.09;;;14.28;68.46
43420;BME280;29017;51.514;-0.178;2023-04-09T09:47:03;101837.31;;;14.37;68.43
43420;BME280;29017;51.514;-0.178;2023-04-09T09:49:36;101843.25;;;14.39;68.51
43420;BME280;29017;51.514;-0.178;2023-04-09T09:52:06;101836.00;;;14.41;68.35
43420;BME280;29017;51.514;-0.178;2023-04-09T09:54:40;101834.84;;;14.44;67.37
43420;BME280;29017;51.514;-0.178;2023-04-09T09:57:09;101836.38;;;14.46;67.28
43420;BME280;29017;51.514;-0.178;2023-04-09T09:59:40;101830.31;;;14.54;67.69
43420;BME280;29017;51.514;-0.178;2023-04-09T10:04:44;101836.19;;;14.66;65.57
43420;BME280;29017;51.514;-0.178;2023-04-09T10:07:21;101830.94;;;14.74;63.38
43420;BME280;29017;51.514;-0.178;2023-04-09T10:09:50;101840.94;;;14.80;63.03
43420;BME280;29017;51.514;-0.178;2023-04-09T10:12:22;101828.41;;;14.90;64.42
43420;BME280;29017;51.514;-0.178;2023-04-09T10:15:01;101811.06;;;14.95;62.44
43420;BME280;29017;51.514;-0.178;2023-04-09T10:17:31;101815.03;;;14.99;61.86
43420;BME280;29017;51.514;-0.178;2023-04-09T10:22:49;101809.00;;;15.15;62.20
43420;BME280;29017;51.514;-0.178;2023-04-09T10:25:25;101811.72;;;15.23;61.21
43420;BME280;29017;51.514;-0.178;2023-04-09T10:28:00;101803.09;;;15.29;58.62
43420;BME280;29017;51.514;-0.178;2023-04-09T10:30:42;101814.03;;;15.26;56.42
43420;BME280;29017;51.514;-0.178;2023-04-09T10:33:26;101805.25;;;15.26;56.45
43420;BME280;29017;51.514;-0.178;2023-04-09T10:36:00;101793.50;;;15.28;56.53
43420;BME280;29017;51.514;-0.178;2023-04-09T10:38:32;101794.31;;;15.29;57.24
43420;BME280;29017;51.514;-0.178;2023-04-09T10:41:14;101784.53;;;15.29;56.59
43420;BME280;29017;51.514;-0.178;2023-04-09T10:43:47;101780.59;;;15.33;56.54
43420;BME280;29017;51.514;-0.178;2023-04-09T10:48:48;101778.59;;;15.35;56.51
43420;BME280;29017;51.514;-0.178;2023-04-09T10:51:33;101773.97;;;15.37;55.84
43420;BME280;29017;51.514;-0.178;2023-04-09T10:54:00;101776.78;;;15.36;54.81
43420;BME280;29017;51.514;-0.178;2023-04-09T10:56:28;101768.66;;;15.37;54.57
43420;BME280;29017;51.514;-0.178;2023-04-09T11:02:00;101756.59;;;15.43;56.11
43420;BME280;29017;51.514;-0.178;2023-04-09T11:04:33;101762.53;;;15.45;55.10
43420;BME280;29017;51.514;-0.178;2023-04-09T11:07:07;101769.16;;;15.41;54.11
43420;BME280;29017;51.514;-0.178;2023-04-09T11:09:35;101763.72;;;15.43;54.69
43420;BME280;29017;51.514;-0.178;2023-04-09T11:12:05;101772.50;;;15.43;55.08
43420;BME280;29017;51.514;-0.178;2023-04-09T11:14:34;101757.72;;;15.40;55.02
43420;BME280;29017;51.514;-0.178;2023-04-09T11:17:06;101753.09;;;15.43;55.49
43420;BME280;29017;51.514;-0.178;2023-04-09T11:19:35;101745.63;;;15.46;54.62
43420;BME280;29017;51.514;-0.178;2023-04-09T11:22:05;101743.38;;;15.51;54.40
43420;BME280;29017;51.514;-0.178;2023-04-09T11:27:10;101742.56;;;15.67;54.67
43420;BME280;29017;51.514;-0.178;2023-04-09T11:29:53;101734.44;;;15.76;55.20
43420;BME280;29017;51.514;-0.178;2023-04-09T11:32:29;101731.94;;;15.75;52.86
43420;BME280;29017;51.514;-0.178;2023-04-09T11:35:12;101728.16;;;15.77;53.14
43420;BME280;29017;51.514;-0.178;2023-04-09T11:37:40;101725.00;;;15.82;53.88
43420;BME280;29017;51.514;-0.178;2023-04-09T11:42:37;101719.03;;;15.80;51.77
43420;BME280;29017;51.514;-0.178;2023-04-09T11:45:05;101709.56;;;15.86;51.88
43420;BME280;29017;51.514;-0.178;2023-04-09T11:47:32;101714.88;;;15.86;51.71
43420;BME280;29017;51.514;-0.178;2023-04-09T11:49:59;101714.56;;;15.89;51.53
43420;BME280;29017;51.514;-0.178;2023-04-09T11:52:26;101704.94;;;15.88;51.74
43420;BME280;29017;51.514;-0.178;2023-04-09T11:59:57;101696.47;;;15.92;49.63
43420;BME280;29017;51.514;-0.178;2023-04-09T12:02:24;101685.88;;;15.92;49.65
43420;BME280;29017;51.514;-0.178;2023-04-09T12:04:51;101695.16;;;15.96;50.13
43420;BME280;29017;51.514;-0.178;2023-04-09T12:07:19;101688.50;;;16.00;50.51
43420;BME280;29017;51.514;-0.178;2023-04-09T12:09:47;101688.34;;;16.02;50.95
43420;BME280;29017;51.514;-0.178;2023-04-09T12:14:45;101671.59;;;15.93;47.12
43420;BME280;29017;51.514;-0.178;2023-04-09T12:17:12;101673.25;;;15.94;49.15
43420;BME280;29017;51.514;-0.178;2023-04-09T12:19:39;101667.44;;;15.99;49.59
43420;BME280;29017;51.514;-0.178;2023-04-09T12:22:06;101665.97;;;16.04;49.13
43420;BME280;29017;51.514;-0.178;2023-04-09T12:24:33;101662.94;;;16.07;49.16
43420;BME280;29017;51.514;-0.178;2023-04-09T12:27:00;101669.09;;;16.08;50.95
43420;BME280;29017;51.514;-0.178;2023-04-09T12:29:27;101666.09;;;16.11;50.97
43420;BME280;29017;51.514;-0.178;2023-04-09T12:31:55;101666.75;;;16.13;50.79
43420;BME280;29017;51.514;-0.178;2023-04-09T12:34:22;101668.25;;;16.15;51.48
43420;BME280;29017;51.514;-0.178;2023-04-09T12:36:51;101660.59;;;16.20;51.62
43420;BME280;29017;51.514;-0.178;2023-04-09T12:39:18;101651.47;;;16.23;50.75
43420;BME280;29017;51.514;-0.178;2023-04-09T12:41:46;101658.78;;;16.29;50.83
43420;BME280;29017;51.514;-0.178;2023-04-09T12:44:13;101651.59;;;16.38;50.43
43420;BME280;29017;51.514;-0.178;2023-04-09T12:46:40;101645.44;;;16.45;49.61
43420;BME280;29017;51.514;-0.178;2023-04-09T12:49:08;101635.94;;;16.51;49.10
43420;BME280;29017;51.514;-0.178;2023-04-09T12:51:35;101631.78;;;16.56;49.46
43420;BME280;29017;51.514;-0.178;2023-04-09T12:54:02;101630.47;;;16.60;49.62
43420;BME280;29017;51.514;-0.178;2023-04-09T12:56:29;101631.13;;;16.62;50.51
43420;BME280;29017;51.514;-0.178;2023-04-09T12:58:56;101636.13;;;16.65;50.48
43420;BME280;29017;51.514;-0.178;2023-04-09T13:01:23;101636.91;;;16.66;49.08
43420;BME280;29017;51.514;-0.178;2023-04-09T13:03:51;101630.44;;;16.68;49.25
43420;BME280;29017;51.514;-0.178;2023-04-09T13:06:18;101622.09;;;16.72;48.20
43420;BME280;29017;51.514;-0.178;2023-04-09T13:08:48;101620.94;;;16.74;48.44
43420;BME280;29017;51.514;-0.178;2023-04-09T13:11:15;101621.09;;;16.81;49.83
43420;BME280;29017;51.514;-0.178;2023-04-09T13:13:42;101621.41;;;16.86;47.59
43420;BME280;29017;51.514;-0.178;2023-04-09T13:16:09;101626.19;;;16.90;47.57
43420;BME280;29017;51.514;-0.178;2023-04-09T13:18:37;101629.31;;;16.94;46.88
43420;BME280;29017;51.514;-0.178;2023-04-09T13:21:04;101621.03;;;16.89;44.95
43420;BME280;29017;51.514;-0.178;2023-04-09T13:23:31;101614.72;;;16.90;46.00